createdAt,value
2018-03-27T00:02:16.439Z,4.40
2018-03-27T00:04:44.305Z,4.40
2018-03-27T00:07:12.175Z,4.40
2018-03-27T00:09:39.907Z,4.40
2018-03-27T00:12:07.659Z,4.40
2018-03-27T00:14:35.383Z,4.20
2018-03-27T00:17:03.110Z,3.90
2018-03-27T00:19:30.998Z,3.80
2018-03-27T00:21:58.869Z,3.90
2018-03-27T00:24:26.732Z,4.10
2018-03-27T00:27:01.358Z,4.20
2018-03-27T00:29:41.206Z,4.30
2018-03-27T00:32:21.808Z,4.20
2018-03-27T00:35:02.011Z,4.40
2018-03-27T00:37:41.877Z,4.30
2018-03-27T00:40:21.489Z,4.50
2018-03-27T00:43:16.675Z,4.50
2018-03-27T00:45:45.179Z,4.30
2018-03-27T00:48:12.901Z,4.30
2018-03-27T00:50:40.742Z,4.20
2018-03-27T00:53:08.608Z,4.30
2018-03-27T00:55:36.476Z,4.50
2018-03-27T00:58:04.203Z,4.60
2018-03-27T01:00:31.918Z,4.70
2018-03-27T01:02:59.642Z,4.80
2018-03-27T01:05:27.367Z,4.80
2018-03-27T01:07:55.850Z,4.90
2018-03-27T01:10:24.353Z,4.70
2018-03-27T01:12:52.082Z,4.70
2018-03-27T01:15:19.810Z,4.80
2018-03-27T01:17:48.290Z,4.60
2018-03-27T01:20:16.172Z,4.50
2018-03-27T01:22:44.045Z,4.70
2018-03-27T01:25:11.907Z,4.80
2018-03-27T01:27:39.775Z,4.90
2018-03-27T01:30:07.643Z,4.60
2018-03-27T01:32:35.509Z,4.50
2018-03-27T01:35:03.228Z,4.50
2018-03-27T01:37:30.967Z,4.70
2018-03-27T01:39:59.466Z,4.90
2018-03-27T01:42:27.945Z,5.00
2018-03-27T01:44:56.489Z,5.00
2018-03-27T01:47:24.352Z,5.00
2018-03-27T01:49:52.219Z,5.10
2018-03-27T01:52:20.087Z,5.10
2018-03-27T01:54:47.953Z,5.10
2018-03-27T01:57:15.821Z,5.00
2018-03-27T01:59:43.689Z,4.70
2018-03-27T02:02:11.559Z,4.80
2018-03-27T02:04:39.422Z,4.90
2018-03-27T02:07:07.290Z,5.00
2018-03-27T02:09:35.158Z,5.00
2018-03-27T02:12:08.657Z,5.00
2018-03-27T02:14:42.054Z,5.00
2018-03-27T02:17:15.380Z,5.00
2018-03-27T02:19:48.890Z,4.90
2018-03-27T02:22:17.414Z,4.90
2018-03-27T02:24:45.165Z,4.80
2018-03-27T02:27:12.891Z,4.90
2018-03-27T02:29:41.362Z,5.00
2018-03-27T02:32:09.209Z,5.00
2018-03-27T02:34:37.078Z,4.80
2018-03-27T02:37:04.944Z,4.70
2018-03-27T02:39:32.662Z,4.80
2018-03-27T02:42:00.370Z,4.90
2018-03-27T02:44:28.101Z,4.90
2018-03-27T02:46:55.817Z,4.80
2018-03-27T02:49:23.538Z,4.80
2018-03-27T02:51:51.274Z,4.70
2018-03-27T02:54:19.754Z,4.40
2018-03-27T02:56:48.241Z,4.50
2018-03-27T02:59:16.056Z,4.50
2018-03-27T03:01:43.929Z,4.70
2018-03-27T03:04:11.790Z,4.70
2018-03-27T03:06:39.591Z,4.70
2018-03-27T03:09:08.090Z,4.70
2018-03-27T03:11:35.798Z,4.70
2018-03-27T03:14:03.670Z,4.70
2018-03-27T03:16:31.394Z,4.60
2018-03-27T03:18:59.199Z,4.50
2018-03-27T03:21:27.067Z,4.50
2018-03-27T03:23:54.934Z,4.40
2018-03-27T03:26:22.804Z,4.30
2018-03-27T03:28:50.669Z,4.20
2018-03-27T03:31:18.435Z,4.10
2018-03-27T03:33:46.301Z,4.10
2018-03-27T03:36:14.168Z,4.00
2018-03-27T03:38:41.888Z,4.00
2018-03-27T03:41:09.603Z,3.80
2018-03-27T03:43:37.323Z,3.70
2018-03-27T03:46:05.045Z,3.70
2018-03-27T03:48:32.758Z,3.70
2018-03-27T03:51:00.474Z,3.70
2018-03-27T03:53:28.195Z,3.70
2018-03-27T03:55:55.917Z,3.70
2018-03-27T03:58:24.413Z,3.60
2018-03-27T04:00:52.134Z,3.60
2018-03-27T04:03:19.853Z,3.50
2018-03-27T04:05:47.579Z,3.50
2018-03-27T04:08:15.306Z,3.60
2018-03-27T04:10:43.184Z,3.60
2018-03-27T04:13:11.052Z,3.60
2018-03-27T04:15:40.557Z,3.60
2018-03-27T04:18:09.243Z,3.60
2018-03-27T04:20:36.970Z,3.60
2018-03-27T04:23:04.713Z,3.70
2018-03-27T04:25:33.256Z,3.70
2018-03-27T04:28:01.123Z,3.70
2018-03-27T04:30:28.990Z,3.80
2018-03-27T04:32:56.857Z,3.80
2018-03-27T04:35:24.729Z,3.80
2018-03-27T04:37:52.592Z,3.80
2018-03-27T04:40:20.458Z,3.90
2018-03-27T04:42:48.357Z,3.70
2018-03-27T04:45:16.402Z,3.50
2018-03-27T04:47:44.267Z,3.30
2018-03-27T04:50:12.133Z,3.30
2018-03-27T04:52:40.001Z,3.50
2018-03-27T04:55:07.868Z,3.50
2018-03-27T04:57:35.735Z,3.40
2018-03-27T05:00:03.518Z,3.50
2018-03-27T05:02:31.244Z,3.60
2018-03-27T05:04:58.954Z,3.80
2018-03-27T05:07:26.709Z,3.80
2018-03-27T05:09:54.433Z,3.90
2018-03-27T05:12:22.165Z,3.90
2018-03-27T05:14:50.646Z,3.80
2018-03-27T05:17:19.126Z,3.90
2018-03-27T05:19:47.601Z,3.90
2018-03-27T05:22:16.252Z,3.90
2018-03-27T05:24:44.050Z,3.90
2018-03-27T05:27:12.528Z,3.90
2018-03-27T05:29:40.263Z,3.90
2018-03-27T05:32:08.131Z,3.90
2018-03-27T05:34:35.929Z,3.90
2018-03-27T05:37:04.687Z,3.90
2018-03-27T05:39:32.416Z,3.90
2018-03-27T05:42:00.213Z,3.80
2018-03-27T05:44:28.082Z,3.80
2018-03-27T05:46:55.801Z,3.80
2018-03-27T05:49:23.611Z,3.80
2018-03-27T05:51:51.337Z,3.90
2018-03-27T05:54:19.079Z,3.90
2018-03-27T05:56:47.580Z,4.10
2018-03-27T05:59:15.387Z,4.00
2018-03-27T06:01:43.256Z,4.20
2018-03-27T06:04:11.122Z,4.40
2018-03-27T06:06:38.838Z,4.70
2018-03-27T06:09:06.825Z,5.10
2018-03-27T06:11:34.622Z,5.40
2018-03-27T06:14:02.490Z,5.60
2018-03-27T06:16:30.357Z,5.70
2018-03-27T06:18:58.155Z,5.80
2018-03-27T06:21:26.808Z,6.20
2018-03-27T06:23:54.526Z,6.20
2018-03-27T06:26:22.253Z,6.80
2018-03-27T06:28:49.973Z,7.30
2018-03-27T06:31:17.871Z,7.70
2018-03-27T06:33:45.651Z,8.00
2018-03-27T06:36:13.349Z,8.20
2018-03-27T06:38:41.163Z,8.80
2018-03-27T06:41:09.032Z,9.50
2018-03-27T06:43:36.752Z,10.10
2018-03-27T06:46:04.475Z,10.60
2018-03-27T06:48:32.326Z,10.90
2018-03-27T06:51:00.192Z,10.90
2018-03-27T06:53:27.926Z,11.00
2018-03-27T06:55:55.650Z,10.60
2018-03-27T06:58:23.366Z,10.10
2018-03-27T07:00:51.074Z,9.60
2018-03-27T07:03:18.917Z,8.90
2018-03-27T07:05:46.783Z,8.30
2018-03-27T07:08:14.649Z,8.00
2018-03-27T07:10:42.564Z,7.70
2018-03-27T07:13:11.212Z,8.60
2018-03-27T07:15:38.932Z,8.60
2018-03-27T07:18:06.868Z,10.10
2018-03-27T07:20:35.431Z,13.50
2018-03-27T07:23:03.285Z,13.40
2018-03-27T07:25:31.004Z,14.40
2018-03-27T07:27:58.816Z,15.00
2018-03-27T07:30:26.684Z,15.30
2018-03-27T07:32:54.546Z,15.20
2018-03-27T07:35:22.423Z,15.40
2018-03-27T07:37:50.218Z,15.90
2018-03-27T07:40:18.868Z,16.20
2018-03-27T07:42:46.736Z,16.10
2018-03-27T07:45:14.603Z,15.80
2018-03-27T07:47:42.349Z,15.90
2018-03-27T07:50:10.133Z,16.00
2018-03-27T07:52:37.938Z,15.90
2018-03-27T07:55:06.439Z,15.70
2018-03-27T07:57:34.247Z,15.70
2018-03-27T08:00:01.975Z,15.00
2018-03-27T08:02:30.801Z,14.20
2018-03-27T08:04:58.672Z,13.30
2018-03-27T08:10:01.346Z,12.70
2018-03-27T08:12:29.234Z,12.50
2018-03-27T08:14:57.104Z,12.80
2018-03-27T08:17:24.970Z,13.30
2018-03-27T08:19:52.699Z,13.70
2018-03-27T08:22:20.499Z,13.80
2018-03-27T08:24:48.226Z,13.60
2018-03-27T08:27:15.959Z,13.30
2018-03-27T08:29:44.532Z,13.20
2018-03-27T08:32:12.238Z,13.20
2018-03-27T08:34:39.958Z,12.70
2018-03-27T08:37:07.809Z,12.10
2018-03-27T08:39:35.673Z,11.90
2018-03-27T08:42:03.550Z,11.70
2018-03-27T08:44:32.123Z,11.60
2018-03-27T08:46:59.842Z,11.60
2018-03-27T08:49:28.473Z,11.90
2018-03-27T08:51:56.341Z,11.90
2018-03-27T08:54:24.925Z,12.20
2018-03-27T08:56:52.793Z,12.20
2018-03-27T09:01:54.465Z,12.50
2018-03-27T09:04:22.334Z,12.10
2018-03-27T09:06:50.200Z,12.00
2018-03-27T09:09:23.806Z,12.10
2018-03-27T09:11:51.669Z,12.30
2018-03-27T09:14:19.435Z,12.30
2018-03-27T09:16:47.306Z,12.30
2018-03-27T09:19:15.171Z,12.60
2018-03-27T09:21:43.038Z,12.70
2018-03-27T09:24:10.754Z,13.00
2018-03-27T09:26:38.566Z,13.20
2018-03-27T09:29:06.433Z,13.00
2018-03-27T09:31:34.301Z,13.00
2018-03-27T09:34:02.035Z,12.80
2018-03-27T09:36:29.774Z,12.80
2018-03-27T09:38:58.253Z,13.10
2018-03-27T09:41:26.896Z,13.30
2018-03-27T09:43:54.698Z,13.30
2018-03-27T09:46:23.348Z,12.90
2018-03-27T09:48:51.215Z,12.90
2018-03-27T09:51:18.956Z,12.90
2018-03-27T09:53:46.682Z,12.90
2018-03-27T09:56:15.329Z,12.40
2018-03-27T09:58:43.066Z,12.40
2018-03-27T10:01:10.962Z,12.30
2018-03-27T10:03:38.828Z,12.50
2018-03-27T10:06:06.696Z,12.70
2018-03-27T10:08:34.563Z,13.10
2018-03-27T10:11:02.436Z,13.30
2018-03-27T10:13:30.298Z,13.60
2018-03-27T10:15:58.022Z,13.60
2018-03-27T10:18:25.827Z,13.50
2018-03-27T10:20:53.552Z,13.20
2018-03-27T10:23:21.358Z,13.40
2018-03-27T10:25:49.224Z,13.50
2018-03-27T10:28:18.014Z,13.60
2018-03-27T10:30:45.743Z,13.50
2018-03-27T10:33:13.473Z,13.60
2018-03-27T10:35:41.988Z,13.90
2018-03-27T10:38:09.714Z,13.80
2018-03-27T10:40:37.445Z,13.50
2018-03-27T10:43:05.319Z,13.40
2018-03-27T10:45:33.127Z,13.20
2018-03-27T10:48:01.706Z,13.20
2018-03-27T10:50:30.356Z,13.20
2018-03-27T10:52:58.224Z,13.20
2018-03-27T10:55:26.091Z,12.90
2018-03-27T10:57:53.958Z,12.50
2018-03-27T11:00:21.825Z,12.30
2018-03-27T11:02:49.693Z,12.10
2018-03-27T11:05:17.560Z,12.10
2018-03-27T11:07:45.427Z,12.00
2018-03-27T11:10:14.115Z,11.90
2018-03-27T11:12:41.980Z,11.80
2018-03-27T11:15:09.807Z,11.80
2018-03-27T11:17:37.613Z,11.60
2018-03-27T11:20:05.481Z,11.50
2018-03-27T11:22:33.347Z,11.60
2018-03-27T11:25:01.215Z,11.60
2018-03-27T11:27:29.081Z,11.70
2018-03-27T11:29:56.950Z,11.70
2018-03-27T11:32:24.818Z,11.60
2018-03-27T11:34:53.504Z,11.30
2018-03-27T11:37:21.370Z,11.30
2018-03-27T11:39:49.239Z,11.20
2018-03-27T11:42:17.106Z,11.00
2018-03-27T11:44:44.977Z,11.00
2018-03-27T11:47:12.841Z,10.90
2018-03-27T11:49:41.429Z,10.80
2018-03-27T11:52:09.293Z,10.70
2018-03-27T11:54:37.161Z,10.70
2018-03-27T11:57:05.026Z,10.70
2018-03-27T11:59:32.893Z,10.80
2018-03-27T12:02:00.761Z,10.70
2018-03-27T12:04:28.629Z,10.70
2018-03-27T12:06:56.495Z,10.60
2018-03-27T12:09:24.363Z,10.70
2018-03-27T12:11:52.230Z,10.60
2018-03-27T12:14:20.098Z,10.70
2018-03-27T12:16:47.965Z,10.80
2018-03-27T12:19:15.833Z,10.90
2018-03-27T12:21:43.700Z,11.00
2018-03-27T12:24:11.566Z,11.10
2018-03-27T12:26:39.370Z,11.10
2018-03-27T12:29:08.019Z,11.40
2018-03-27T12:31:35.887Z,11.40
2018-03-27T12:34:03.753Z,11.60
2018-03-27T12:36:31.621Z,11.90
2018-03-27T12:38:59.487Z,12.30
2018-03-27T12:41:27.358Z,12.70
2018-03-27T12:43:55.222Z,12.80
2018-03-27T12:46:23.088Z,12.90
2018-03-27T12:48:50.957Z,13.50
2018-03-27T12:51:18.824Z,14.00
2018-03-27T12:53:46.691Z,14.30
2018-03-27T12:56:14.558Z,14.20
2018-03-27T12:58:42.429Z,14.20
2018-03-27T13:01:10.294Z,14.40
2018-03-27T13:03:38.163Z,14.60
2018-03-27T13:06:06.028Z,15.00
2018-03-27T13:08:33.895Z,15.10
2018-03-27T13:11:01.763Z,15.10
2018-03-27T13:13:29.630Z,15.20
2018-03-27T13:15:57.498Z,15.20
2018-03-27T13:18:25.364Z,15.10
2018-03-27T13:20:53.231Z,14.80
2018-03-27T13:23:21.100Z,14.70
2018-03-27T13:25:48.966Z,14.60
2018-03-27T13:28:16.834Z,14.40
2018-03-27T13:30:44.702Z,14.40
2018-03-27T13:33:12.573Z,14.40
2018-03-27T13:35:40.435Z,14.40
2018-03-27T13:38:08.303Z,14.10
2018-03-27T13:40:36.170Z,13.60
2018-03-27T13:43:04.041Z,13.40
2018-03-27T13:45:31.904Z,13.40
2018-03-27T13:47:59.814Z,13.30
2018-03-27T13:50:28.458Z,13.30
2018-03-27T13:52:56.326Z,13.20
2018-03-27T13:55:24.194Z,13.20
2018-03-27T13:57:52.061Z,13.10
2018-03-27T14:00:19.935Z,13.10
2018-03-27T14:02:48.615Z,12.90
2018-03-27T14:05:16.481Z,12.80
2018-03-27T14:07:44.350Z,12.80
2018-03-27T14:10:12.228Z,12.70
2018-03-27T14:12:40.084Z,12.40
2018-03-27T14:15:07.952Z,12.30
2018-03-27T14:17:35.818Z,12.20
2018-03-27T14:20:03.686Z,12.10
2018-03-27T14:22:31.552Z,12.00
2018-03-27T14:24:59.424Z,11.90
2018-03-27T14:27:27.288Z,11.80
2018-03-27T14:29:55.155Z,11.70
2018-03-27T14:32:23.026Z,11.60
2018-03-27T14:34:50.890Z,11.50
2018-03-27T14:37:18.757Z,11.40
2018-03-27T14:39:46.624Z,11.40
2018-03-27T14:42:14.492Z,11.30
2018-03-27T14:44:42.326Z,11.40
2018-03-27T14:47:10.943Z,11.40
2018-03-27T14:49:38.713Z,11.40
2018-03-27T14:52:06.576Z,11.40
2018-03-27T14:54:34.442Z,11.50
2018-03-27T14:57:02.311Z,11.70
2018-03-27T14:59:30.177Z,11.70
2018-03-27T15:01:58.044Z,11.70
2018-03-27T15:04:25.911Z,11.80
2018-03-27T15:06:53.778Z,11.90
2018-03-27T15:09:21.646Z,11.90
2018-03-27T15:11:49.514Z,11.90
2018-03-27T15:14:17.383Z,11.90
2018-03-27T15:16:45.249Z,11.90
2018-03-27T15:19:13.049Z,11.80
2018-03-27T15:21:41.699Z,11.80
2018-03-27T15:24:09.673Z,11.80
2018-03-27T15:26:37.779Z,11.80
2018-03-27T15:29:06.367Z,11.80
2018-03-27T15:31:35.012Z,11.70
2018-03-27T15:34:02.879Z,11.70
2018-03-27T15:36:33.907Z,11.60
2018-03-27T15:39:06.900Z,11.30
2018-03-27T15:43:48.537Z,11.30
2018-03-27T15:46:21.257Z,11.00
2018-03-27T15:48:53.942Z,11.00
2018-03-27T15:51:25.855Z,11.00
2018-03-27T15:53:56.140Z,11.00
2018-03-27T15:56:26.218Z,11.10
2018-03-27T15:58:55.593Z,11.20
2018-03-27T16:01:26.461Z,11.20
2018-03-27T16:03:57.319Z,11.10
2018-03-27T16:06:26.916Z,11.10
2018-03-27T16:08:55.754Z,10.80
2018-03-27T16:11:23.623Z,10.80
2018-03-27T16:13:51.490Z,10.60
2018-03-27T16:16:19.357Z,10.40
2018-03-27T16:18:47.224Z,10.30
2018-03-27T16:21:15.092Z,10.20
2018-03-27T16:23:42.960Z,10.10
2018-03-27T16:26:10.826Z,10.10
2018-03-27T16:28:38.694Z,10.10
2018-03-27T16:31:06.561Z,10.10
2018-03-27T16:33:34.429Z,10.10
2018-03-27T16:36:02.297Z,10.10
2018-03-27T16:38:30.163Z,10.00
2018-03-27T16:40:58.031Z,9.90
2018-03-27T16:43:25.898Z,9.90
2018-03-27T16:45:53.765Z,9.80
2018-03-27T16:48:21.633Z,9.80
2018-03-27T16:50:49.501Z,9.80
2018-03-27T16:53:17.366Z,9.70
2018-03-27T16:55:45.234Z,9.60
2018-03-27T16:58:13.108Z,9.50
2018-03-27T17:00:40.972Z,9.40
2018-03-27T17:03:08.838Z,9.40
2018-03-27T17:05:36.703Z,9.40
2018-03-27T17:08:04.571Z,9.30
2018-03-27T17:10:33.053Z,9.30
2018-03-27T17:13:00.922Z,9.30
2018-03-27T17:15:28.787Z,9.40
2018-03-27T17:17:56.654Z,9.40
2018-03-27T17:20:24.523Z,9.40
2018-03-27T17:22:52.389Z,9.40
2018-03-27T17:25:20.257Z,9.40
2018-03-27T17:27:48.126Z,9.30
2018-03-27T17:30:15.991Z,9.30
2018-03-27T17:32:43.867Z,9.30
2018-03-27T17:35:11.725Z,9.20
2018-03-27T17:37:39.593Z,9.20
2018-03-27T17:40:07.460Z,9.10
2018-03-27T17:42:35.327Z,9.20
2018-03-27T17:45:03.196Z,9.10
2018-03-27T17:47:31.117Z,9.10
2018-03-27T17:49:59.750Z,9.10
2018-03-27T17:52:27.514Z,9.10
2018-03-27T17:54:56.099Z,9.10
2018-03-27T17:57:23.967Z,9.10
2018-03-27T17:59:51.835Z,9.00
2018-03-27T18:02:19.701Z,8.90
2018-03-27T18:04:47.568Z,9.00
2018-03-27T18:07:15.436Z,9.10
2018-03-27T18:09:43.303Z,9.10
2018-03-27T18:12:11.171Z,9.10
2018-03-27T18:14:38.966Z,8.90
2018-03-27T18:17:07.621Z,8.80
2018-03-27T18:19:35.488Z,8.80
2018-03-27T18:22:03.355Z,8.70
2018-03-27T18:24:31.221Z,8.60
2018-03-27T18:26:59.089Z,8.60
2018-03-27T18:29:26.957Z,8.60
2018-03-27T18:31:54.824Z,8.60
2018-03-27T18:34:22.698Z,8.50
2018-03-27T18:36:50.559Z,8.30
2018-03-27T18:39:18.426Z,8.40
2018-03-27T18:41:46.295Z,8.40
2018-03-27T18:44:14.162Z,8.50
2018-03-27T18:46:42.029Z,8.50
2018-03-27T18:49:09.896Z,8.40
2018-03-27T18:51:37.763Z,8.40
2018-03-27T18:54:05.630Z,8.40
2018-03-27T18:56:33.497Z,8.30
2018-03-27T18:59:01.365Z,8.40
2018-03-27T19:01:29.233Z,8.40
2018-03-27T19:03:57.100Z,8.30
2018-03-27T19:06:24.967Z,8.30
2018-03-27T19:08:52.835Z,8.30
2018-03-27T19:11:20.703Z,8.30
2018-03-27T19:13:48.570Z,8.30
2018-03-27T19:16:16.436Z,8.40
2018-03-27T19:18:44.304Z,8.40
2018-03-27T19:21:12.172Z,8.30
2018-03-27T19:23:40.038Z,8.20
2018-03-27T19:26:07.905Z,8.20
2018-03-27T19:28:35.773Z,8.10
2018-03-27T19:31:03.644Z,8.00
2018-03-27T19:33:31.508Z,8.00
2018-03-27T19:35:59.374Z,8.00
2018-03-27T19:38:27.242Z,8.00
2018-03-27T19:40:55.111Z,7.80
2018-03-27T19:43:22.992Z,7.80
2018-03-27T19:45:50.843Z,7.80
2018-03-27T19:48:18.712Z,7.90
2018-03-27T19:50:46.579Z,7.90
2018-03-27T19:53:14.446Z,7.90
2018-03-27T19:55:42.313Z,7.90
2018-03-27T19:58:10.182Z,7.80
2018-03-27T20:00:38.048Z,7.80
2018-03-27T20:03:05.916Z,7.80
2018-03-27T20:05:33.786Z,7.80
2018-03-27T20:08:01.650Z,7.80
2018-03-27T20:10:29.517Z,7.80
2018-03-27T20:12:57.384Z,7.80
2018-03-27T20:15:25.252Z,7.80
2018-03-27T20:17:53.119Z,7.80
2018-03-27T20:20:20.916Z,7.70
2018-03-27T20:22:49.575Z,7.60
2018-03-27T20:25:17.438Z,7.60
2018-03-27T20:27:45.306Z,7.60
2018-03-27T20:30:13.174Z,7.60
2018-03-27T20:32:41.049Z,7.70
2018-03-27T20:35:08.992Z,7.60
2018-03-27T20:37:36.877Z,7.60
2018-03-27T20:40:04.745Z,7.60
2018-03-27T20:42:32.611Z,7.60
2018-03-27T20:45:00.480Z,7.50
2018-03-27T20:47:28.347Z,7.50
2018-03-27T20:49:56.214Z,7.50
2018-03-27T20:52:24.081Z,7.40
2018-03-27T20:54:51.832Z,7.40
2018-03-27T20:57:19.714Z,7.40
2018-03-27T20:59:47.486Z,7.40
2018-03-27T21:02:15.346Z,7.40
2018-03-27T21:04:43.213Z,7.50
2018-03-27T21:07:10.947Z,7.40
2018-03-27T21:09:38.744Z,7.30
2018-03-27T21:12:06.454Z,7.30
2018-03-27T21:14:34.950Z,7.40
2018-03-27T21:17:02.674Z,7.40
2018-03-27T21:19:30.389Z,7.50
2018-03-27T21:21:58.120Z,7.60
2018-03-27T21:24:26.598Z,7.50
2018-03-27T21:26:55.078Z,7.50
2018-03-27T21:29:23.566Z,7.50
2018-03-27T21:31:52.212Z,7.50
2018-03-27T21:34:19.926Z,7.50
2018-03-27T21:36:47.742Z,7.40
2018-03-27T21:39:15.542Z,7.50
2018-03-27T21:41:44.026Z,7.40
2018-03-27T21:44:12.515Z,7.50
2018-03-27T21:46:40.998Z,7.50
2018-03-27T21:49:09.482Z,7.60
2018-03-27T21:51:37.958Z,7.60
2018-03-27T21:54:06.442Z,7.60
2018-03-27T21:56:34.926Z,7.60
2018-03-27T21:59:03.432Z,7.60
2018-03-27T22:01:31.142Z,7.60
2018-03-27T22:03:58.993Z,7.70
2018-03-27T22:06:26.860Z,7.70
2018-03-27T22:08:54.731Z,7.60
2018-03-27T22:11:22.593Z,7.60
2018-03-27T22:13:50.461Z,7.50
2018-03-27T22:16:18.179Z,7.40
2018-03-27T22:18:45.991Z,7.50
2018-03-27T22:21:13.858Z,7.60
2018-03-27T22:23:41.574Z,7.60
2018-03-27T22:26:09.294Z,7.60
2018-03-27T22:28:37.153Z,7.60
2018-03-27T22:31:04.925Z,7.50
2018-03-27T22:33:32.641Z,7.60
2018-03-27T22:36:00.362Z,7.50
2018-03-27T22:38:28.078Z,7.60
2018-03-27T22:40:55.875Z,7.70
2018-03-27T22:43:23.743Z,7.70
2018-03-27T22:45:51.470Z,7.70
2018-03-27T22:48:19.199Z,7.70
2018-03-27T22:50:47.037Z,7.70
2018-03-27T22:53:14.905Z,7.60
2018-03-27T22:55:42.772Z,7.60
2018-03-27T22:58:10.524Z,7.60
2018-03-27T23:00:38.251Z,7.60
2018-03-27T23:03:06.734Z,7.60
2018-03-27T23:05:34.442Z,7.60
2018-03-27T23:08:02.171Z,7.70
2018-03-27T23:10:29.977Z,7.70
2018-03-27T23:12:57.844Z,7.70
2018-03-27T23:15:25.711Z,7.70
2018-03-27T23:17:53.578Z,7.80
2018-03-27T23:20:21.446Z,7.80
2018-03-27T23:22:49.315Z,7.80
2018-03-27T23:25:17.030Z,7.70
2018-03-27T23:27:44.739Z,7.70
2018-03-27T23:30:12.457Z,7.80
2018-03-27T23:32:40.206Z,7.80
2018-03-27T23:35:08.754Z,7.90
2018-03-27T23:37:36.462Z,7.80
2018-03-27T23:40:04.957Z,7.80
2018-03-27T23:42:32.689Z,7.80
2018-03-27T23:45:01.173Z,7.80
2018-03-27T23:47:28.901Z,7.70
2018-03-27T23:49:56.618Z,7.70
2018-03-27T23:52:25.106Z,7.70
2018-03-27T23:54:52.862Z,7.70
2018-03-27T23:57:21.342Z,7.70
2018-03-27T23:59:49.818Z,7.70
